Time;durP1;ratioP1;P1;durP2;ratioP2;P2;SDS_P1;SDS_P2;PMS_P1;PMS_P2;Temp;Humidity;BMP_temperature;BMP_pressure;BME280_temperature;BME280_humidity;BME280_pressure;Samples;Min_cycle;Max_cycle;Signal;HPM_P1;HPM_P2
2022/10/29 00:03:58;;;;;;;16.33;10.90;;;15.60;99.90;;;;;;10021013;29;20241;-83
2022/10/29 00:09:01;;;;;;;16.73;12.37;;;15.70;99.90;;;;;;10036233;29;20321;-82
2022/10/29 00:14:06;;;;;;;20.50;12.57;;;15.80;99.90;;;;;;9992672;29;20695;-83
2022/10/29 00:19:09;;;;;;;20.13;14.90;;;15.60;99.90;;;;;;9970819;29;20245;-82
2022/10/29 00:24:11;;;;;;;23.83;13.93;;;15.40;99.90;;;;;;10003319;29;20263;-82
2022/10/29 00:29:14;;;;;;;18.93;11.93;;;14.90;99.90;;;;;;9995406;29;20274;-83
2022/10/29 00:34:16;;;;;;;14.27;10.13;;;15.40;99.90;;;;;;9981496;29;20700;-83
2022/10/29 00:39:19;;;;;;;16.60;10.60;;;15.60;99.90;;;;;;9981001;29;20742;-82
2022/10/29 00:44:37;;;;;;;13.73;10.80;;;15.50;99.90;;;;;;10033117;29;20918;-82
2022/10/29 00:49:41;;;;;;;16.47;11.73;;;15.50;99.90;;;;;;10017295;29;20252;-82
2022/10/29 00:54:46;;;;;;;19.53;11.43;;;15.80;99.90;;;;;;10004650;29;20271;-82
2022/10/29 00:59:49;;;;;;;14.97;10.70;;;15.70;99.90;;;;;;10017914;29;20248;-82
2022/10/29 01:04:52;;;;;;;18.87;10.90;;;16.20;99.90;;;;;;10039742;29;20286;-82
2022/10/29 01:09:55;;;;;;;13.17;9.97;;;15.90;99.90;;;;;;9965903;29;20234;-82
2022/10/29 01:14:57;;;;;;;11.03;9.13;;;16.20;99.90;;;;;;9993647;29;20241;-82
2022/10/29 01:20:31;;;;;;;16.53;10.87;;;17.00;99.90;;;;;;10027054;29;20685;-82
2022/10/29 01:25:46;;;;;;;14.07;10.03;;;16.70;99.90;;;;;;10054791;29;20301;-82
2022/10/29 01:31:22;;;;;;;13.33;10.10;;;16.90;99.90;;;;;;10003542;29;20301;-82
2022/10/29 01:36:31;;;;;;;15.40;9.17;;;16.90;99.90;;;;;;9996546;29;20238;-81
2022/10/29 01:41:43;;;;;;;11.50;8.43;;;17.50;99.90;;;;;;9980645;29;20711;-82
2022/10/29 01:46:56;;;;;;;10.33;8.53;;;17.60;99.90;;;;;;10036731;29;20737;-82
2022/10/29 01:52:02;;;;;;;11.30;8.80;;;17.50;99.90;;;;;;10015660;29;20294;-82
2022/10/29 01:57:27;;;;;;;13.07;9.60;;;17.40;99.90;;;;;;9994373;29;20252;-82
2022/10/29 02:02:39;;;;;;;9.50;8.23;;;17.50;99.90;;;;;;10018445;29;20244;-82
2022/10/29 02:07:54;;;;;;;14.17;9.20;;;17.70;99.90;;;;;;10030213;29;20290;-82
2022/10/29 02:12:57;;;;;;;12.60;8.67;;;17.70;99.90;;;;;;9979848;29;20302;-82
2022/10/29 02:18:02;;;;;;;13.70;9.13;;;17.70;99.90;;;;;;9961176;29;20626;-82
2022/10/29 02:23:05;;;;;;;12.27;8.50;;;17.50;99.90;;;;;;9997323;29;20249;-82
2022/10/29 02:28:07;;;;;;;11.27;8.17;;;17.00;99.90;;;;;;9998152;29;20332;-82
2022/10/29 02:33:10;;;;;;;10.30;8.60;;;17.10;99.90;;;;;;9998031;29;20234;-82
2022/10/29 02:38:13;;;;;;;10.70;9.07;;;17.60;99.90;;;;;;9998113;29;20351;-82
2022/10/29 02:43:15;;;;;;;13.53;8.53;;;17.90;99.90;;;;;;9998378;29;20306;-82
2022/10/29 02:48:18;;;;;;;11.47;7.87;;;18.30;99.90;;;;;;9998160;29;20261;-82
2022/10/29 02:53:20;;;;;;;12.13;9.07;;;18.00;99.90;;;;;;10014319;29;20709;-82
2022/10/29 02:58:22;;;;;;;10.77;8.27;;;18.20;99.90;;;;;;10008507;29;20247;-82
2022/10/29 03:03:25;;;;;;;10.63;8.30;;;17.90;99.90;;;;;;9960237;29;20652;-82
2022/10/29 03:08:27;;;;;;;9.90;7.47;;;17.70;99.90;;;;;;9997979;29;20676;-82
2022/10/29 03:13:30;;;;;;;13.83;9.03;;;17.80;99.90;;;;;;9975998;29;20242;-82
2022/10/29 03:18:32;;;;;;;11.63;9.20;;;17.80;99.90;;;;;;9981588;29;20310;-82
2022/10/29 03:23:35;;;;;;;13.53;8.43;;;17.80;99.90;;;;;;10013508;29;20242;-82
2022/10/29 03:28:37;;;;;;;12.83;7.87;;;17.80;99.90;;;;;;10001719;29;20805;-81
2022/10/29 03:33:40;;;;;;;12.73;8.33;;;17.50;99.90;;;;;;9966590;29;20231;-82
2022/10/29 03:38:42;;;;;;;11.13;9.00;;;17.80;99.90;;;;;;9970126;29;20206;-82
2022/10/29 03:43:45;;;;;;;9.33;7.57;;;17.80;99.90;;;;;;10019582;29;20239;-82
2022/10/29 03:48:50;;;;;;;11.00;7.60;;;17.50;99.90;;;;;;10018880;29;20319;-81
2022/10/29 03:53:53;;;;;;;9.83;7.47;;;17.50;99.90;;;;;;10010566;29;20242;-81
2022/10/29 03:58:55;;;;;;;11.27;9.17;;;17.50;99.90;;;;;;10029043;29;20246;-82
2022/10/29 04:03:58;;;;;;;10.57;7.97;;;17.60;99.90;;;;;;10019419;29;20237;-82
2022/10/29 04:09:00;;;;;;;8.43;7.60;;;17.50;99.90;;;;;;10016917;29;20335;-82
2022/10/29 04:14:03;;;;;;;14.60;7.97;;;17.50;99.90;;;;;;9985304;29;20771;-82
2022/10/29 04:19:05;;;;;;;9.10;7.83;;;17.30;99.90;;;;;;9976989;29;20243;-82
2022/10/29 04:24:08;;;;;;;11.73;8.33;;;17.60;99.90;;;;;;9980899;29;20239;-82
2022/10/29 04:29:30;;;;;;;12.33;8.17;;;17.70;99.90;;;;;;10020523;29;20308;-81
2022/10/29 04:34:33;;;;;;;14.23;8.97;;;17.80;99.90;;;;;;10018352;29;20283;-82
2022/10/29 04:39:35;;;;;;;8.83;6.70;;;18.00;99.90;;;;;;9992804;29;20241;-83
2022/10/29 04:44:38;;;;;;;9.10;7.83;;;17.90;99.90;;;;;;10025668;29;20627;-82
2022/10/29 04:49:41;;;;;;;13.60;7.20;;;18.10;99.90;;;;;;9971007;29;20294;-82
2022/10/29 04:54:43;;;;;;;8.67;7.13;;;17.90;99.90;;;;;;10001080;29;20261;-82
2022/10/29 04:59:46;;;;;;;12.83;8.10;;;17.70;99.90;;;;;;10015877;29;20298;-82
2022/10/29 05:04:48;;;;;;;11.97;7.67;;;17.80;99.90;;;;;;10017389;29;20237;-82
2022/10/29 05:09:51;;;;;;;8.40;7.10;;;17.50;99.90;;;;;;10015890;29;20291;-82
2022/10/29 05:14:53;;;;;;;13.73;7.63;;;17.50;99.90;;;;;;10017084;29;20242;-82
2022/10/29 05:19:56;;;;;;;8.27;7.10;;;17.50;99.90;;;;;;10013809;29;20810;-82
2022/10/29 05:24:58;;;;;;;8.40;7.10;;;17.50;99.90;;;;;;9998580;29;20248;-82
2022/10/29 05:30:01;;;;;;;9.83;8.03;;;17.80;99.90;;;;;;10053816;29;20669;-82
2022/10/29 05:35:03;;;;;;;11.10;7.63;;;17.80;99.90;;;;;;10026852;29;20891;-82
2022/10/29 05:40:07;;;;;;;9.53;6.30;;;17.90;99.90;;;;;;9999940;29;20728;-82
2022/10/29 05:45:09;;;;;;;12.03;7.77;;;17.80;99.90;;;;;;9985860;29;20358;-82
2022/10/29 05:50:12;;;;;;;8.30;6.83;;;18.00;99.90;;;;;;9998665;29;20294;-82
2022/10/29 05:55:15;;;;;;;12.00;7.03;;;17.80;99.90;;;;;;10014001;29;20632;-82
2022/10/29 06:00:17;;;;;;;8.00;6.77;;;17.80;99.90;;;;;;10053310;29;20245;-82
2022/10/29 06:05:20;;;;;;;10.23;6.93;;;18.10;99.90;;;;;;10023341;29;20311;-82
2022/10/29 06:10:24;;;;;;;9.07;7.40;;;18.10;99.90;;;;;;9999701;29;20270;-82
2022/10/29 06:15:27;;;;;;;16.53;7.20;;;18.20;99.90;;;;;;10014681;29;20244;-82
2022/10/29 06:20:30;;;;;;;8.77;7.27;;;18.20;99.90;;;;;;10008825;29;20245;-82
2022/10/29 06:25:33;;;;;;;11.57;7.37;;;18.10;99.90;;;;;;10019731;29;20676;-81
2022/10/29 06:30:36;;;;;;;7.93;6.80;;;18.00;99.90;;;;;;10009439;29;20266;-82
2022/10/29 06:35:38;;;;;;;13.07;7.30;;;18.20;99.90;;;;;;9974041;29;20293;-82
2022/10/29 06:40:42;;;;;;;8.83;6.80;;;18.20;99.90;;;;;;10045877;29;20637;-81
2022/10/29 06:45:45;;;;;;;7.33;6.57;;;17.90;99.90;;;;;;9986406;29;20237;-82
2022/10/29 06:50:47;;;;;;;8.20;6.77;;;18.10;99.90;;;;;;10005728;29;20270;-82
2022/10/29 06:55:50;;;;;;;13.13;7.80;;;18.20;99.90;;;;;;10022878;29;20241;-82
2022/10/29 07:00:52;;;;;;;8.93;7.90;;;18.40;99.90;;;;;;9995039;29;20251;-83
2022/10/29 07:05:57;;;;;;;7.50;6.50;;;18.30;99.90;;;;;;10021461;29;20213;-82
2022/10/29 07:11:01;;;;;;;9.60;7.13;;;18.30;99.90;;;;;;10003946;29;20257;-82
2022/10/29 07:16:04;;;;;;;7.60;6.47;;;18.40;99.90;;;;;;9994027;29;20234;-82
2022/10/29 07:21:08;;;;;;;9.87;7.53;;;18.30;99.90;;;;;;10020781;29;20259;-82
2022/10/29 07:26:10;;;;;;;11.40;7.73;;;18.30;99.90;;;;;;10026176;29;20272;-83
2022/10/29 07:31:13;;;;;;;12.10;7.73;;;18.40;99.90;;;;;;10020200;29;20336;-83
2022/10/29 07:36:15;;;;;;;8.70;7.27;;;18.40;99.90;;;;;;10033641;29;20266;-82
2022/10/29 07:41:18;;;;;;;9.67;7.23;;;18.40;99.90;;;;;;10041792;29;20292;-82
2022/10/29 07:46:20;;;;;;;7.57;6.10;;;18.50;99.90;;;;;;10010391;29;20287;-82
2022/10/29 07:51:23;;;;;;;7.83;6.77;;;18.40;99.90;;;;;;10004178;29;20645;-82
2022/10/29 07:56:25;;;;;;;8.37;7.37;;;18.40;99.90;;;;;;10003122;29;20376;-82
2022/10/29 08:01:28;;;;;;;8.90;7.13;;;18.50;99.90;;;;;;10028283;29;20246;-82
2022/10/29 08:06:30;;;;;;;8.70;7.00;;;18.60;99.90;;;;;;10019426;29;20590;-83
2022/10/29 08:11:33;;;;;;;12.37;7.37;;;18.80;99.90;;;;;;10001908;29;20688;-83
2022/10/29 08:16:37;;;;;;;8.60;6.67;;;18.50;99.90;;;;;;10033425;29;20214;-82
2022/10/29 08:21:39;;;;;;;13.70;8.03;;;18.40;99.90;;;;;;10023710;29;20233;-83
2022/10/29 08:26:42;;;;;;;12.03;7.00;;;18.50;99.90;;;;;;9993627;29;20265;-82
2022/10/29 08:31:44;;;;;;;7.40;6.53;;;18.70;99.90;;;;;;10012475;29;20240;-82
2022/10/29 08:36:47;;;;;;;11.33;7.03;;;18.80;99.90;;;;;;10020664;29;20305;-82
2022/10/29 08:41:49;;;;;;;9.10;7.30;;;18.60;99.90;;;;;;9995068;29;20222;-82
2022/10/29 08:46:59;;;;;;;10.73;6.43;;;18.50;99.90;;;;;;10015749;29;20258;-82
2022/10/29 08:52:23;;;;;;;10.53;7.40;;;18.70;99.90;;;;;;10012432;29;20265;-82
2022/10/29 08:57:30;;;;;;;9.93;7.50;;;18.90;99.90;;;;;;10032262;29;20298;-84
2022/10/29 09:02:33;;;;;;;10.17;7.17;;;18.90;99.90;;;;;;10023821;29;20252;-81
2022/10/29 09:07:54;;;;;;;13.17;8.07;;;18.90;99.90;;;;;;10035301;29;20262;-82
2022/10/29 09:13:24;;;;;;;8.87;6.87;;;18.60;99.90;;;;;;10043295;29;20237;-83
2022/10/29 09:18:41;;;;;;;14.13;8.10;;;18.80;99.90;;;;;;10016730;29;20242;-83
2022/10/29 09:24:09;;;;;;;13.73;6.97;;;17.30;99.90;;;;;;9987580;29;20249;-82
2022/10/29 09:29:48;;;;;;;9.10;6.47;;;18.90;99.90;;;;;;10001431;29;20307;-81
2022/10/29 09:34:56;;;;;;;10.63;6.80;;;18.90;99.90;;;;;;9986312;29;20293;-81
2022/10/29 09:40:04;;;;;;;14.00;7.53;;;19.10;99.90;;;;;;10053261;29;20293;-80
2022/10/29 09:45:14;;;;;;;16.43;6.67;;;18.60;99.90;;;;;;10039052;29;20655;-80
2022/10/29 09:50:36;;;;;;;13.67;6.70;;;19.00;99.90;;;;;;10008886;29;20310;-82
2022/10/29 09:55:42;;;;;;;11.03;6.63;;;19.00;99.90;;;;;;10015095;29;20282;-82
2022/10/29 10:00:44;;;;;;;11.80;6.43;;;18.70;99.90;;;;;;10023034;29;20249;-81
2022/10/29 10:06:06;;;;;;;7.27;6.07;;;18.80;99.90;;;;;;10032274;29;20305;-81
2022/10/29 10:11:18;;;;;;;9.47;6.50;;;18.70;99.90;;;;;;9997648;29;20254;-83
2022/10/29 10:16:26;;;;;;;17.03;7.27;;;18.90;99.90;;;;;;10030915;29;20237;-82
2022/10/29 10:21:31;;;;;;;15.07;7.07;;;17.90;99.90;;;;;;10052616;29;20314;-83
2022/10/29 10:26:41;;;;;;;18.97;7.50;;;17.90;99.90;;;;;;10021775;29;20326;-82
2022/10/29 10:31:47;;;;;;;13.77;7.70;;;19.00;99.90;;;;;;9983360;29;20331;-81
2022/10/29 10:36:51;;;;;;;12.57;7.37;;;19.00;99.90;;;;;;10013418;29;20635;-81
2022/10/29 10:41:56;;;;;;;10.27;7.37;;;19.00;99.90;;;;;;10001710;29;20230;-81
2022/10/29 10:47:06;;;;;;;13.90;6.90;;;19.10;99.90;;;;;;10021877;29;20312;-79
2022/10/29 10:52:26;;;;;;;13.07;6.03;;;18.90;99.90;;;;;;10012330;29;20266;-79
2022/10/29 10:57:35;;;;;;;9.27;6.17;;;18.90;99.90;;;;;;9997456;29;20780;-80
2022/10/29 11:02:46;;;;;;;10.20;6.60;;;19.10;99.90;;;;;;10026491;29;20387;-79
2022/10/29 11:08:15;;;;;;;15.27;6.80;;;19.20;99.90;;;;;;10050979;29;20242;-79
2022/10/29 11:13:21;;;;;;;10.10;4.50;;;19.20;99.90;;;;;;10034719;29;20241;-80
2022/10/29 11:18:30;;;;;;;14.13;4.17;;;18.60;99.90;;;;;;9999287;29;20698;-80
2022/10/29 11:23:45;;;;;;;10.77;4.30;;;18.00;99.90;;;;;;10015336;29;20247;-80
2022/10/29 11:29:03;;;;;;;15.10;5.37;;;18.20;99.90;;;;;;10047345;29;21008;-80
2022/10/29 11:34:19;;;;;;;11.37;4.43;;;18.90;99.90;;;;;;10003253;24;20273;-81
2022/10/29 11:45:01;;;;;;;5.90;4.00;;;18.70;99.90;;;;;;10426422;24;20278;-94
2022/10/29 11:50:39;;;;;;;7.73;3.90;;;18.80;99.90;;;;;;10049833;29;20218;-95
2022/10/29 11:56:19;;;;;;;9.20;3.63;;;19.10;99.90;;;;;;10035076;29;20246;-92
2022/10/29 12:01:51;;;;;;;6.77;4.10;;;18.70;99.90;;;;;;10033519;29;20244;-94
2022/10/29 12:07:22;;;;;;;5.40;4.40;;;18.50;99.90;;;;;;9882886;30;20221;-94
2022/10/29 12:12:31;;;;;;;7.47;3.67;;;18.80;99.90;;;;;;9894970;30;20267;-93
2022/10/29 12:17:57;;;;;;;8.50;4.43;;;19.00;99.90;;;;;;9897650;30;20205;-92
2022/10/29 12:46:01;;;;;;;8.53;3.47;;;18.60;99.90;;;;;;10036927;29;20242;-95
2022/10/29 12:51:44;;;;;;;10.03;3.80;;;18.60;99.90;;;;;;10028855;29;20238;-94
2022/10/29 12:56:47;;;;;;;11.03;4.07;;;18.60;99.90;;;;;;10018426;29;20209;-89
2022/10/29 13:01:52;;;;;;;30.93;5.40;;;18.60;99.90;;;;;;10037782;29;20221;-90
2022/10/29 13:07:17;;;;;;;6.83;3.63;;;18.50;99.90;;;;;;10055834;29;20218;-90
2022/10/29 13:12:53;;;;;;;12.20;4.10;;;18.40;99.90;;;;;;10039287;29;20257;-89
2022/10/29 13:18:01;;;;;;;7.50;3.57;;;18.90;99.90;;;;;;10051459;29;20243;-90
2022/10/29 13:23:23;;;;;;;26.37;4.27;;;19.30;99.90;;;;;;10053872;29;20245;-90
2022/10/29 13:28:26;;;;;;;11.50;4.17;;;19.30;99.90;;;;;;10052887;29;20743;-90
2022/10/29 13:33:28;;;;;;;8.27;3.23;;;19.40;99.90;;;;;;10051724;29;20234;-90
2022/10/29 13:38:59;;;;;;;13.50;5.23;;;19.50;99.90;;;;;;10029363;29;20298;-90
2022/10/29 13:44:21;;;;;;;8.90;4.30;;;19.50;99.90;;;;;;10026688;29;20734;-90
2022/10/29 13:49:30;;;;;;;9.63;3.90;;;19.50;99.90;;;;;;10049783;29;20313;-91
2022/10/29 13:54:36;;;;;;;7.00;3.90;;;19.30;99.90;;;;;;10029240;29;20245;-91
2022/10/29 14:00:03;;;;;;;6.60;3.97;;;19.60;99.90;;;;;;10045094;29;20253;-91
2022/10/29 14:05:41;;;;;;;12.63;4.03;;;19.60;99.90;;;;;;10047983;29;20790;-91
2022/10/29 14:10:49;;;;;;;7.83;4.53;;;19.60;99.90;;;;;;10033184;29;20408;-89
2022/10/29 14:16:12;;;;;;;7.17;4.40;;;19.70;99.90;;;;;;10050763;29;20230;-90
2022/10/29 14:21:23;;;;;;;7.10;4.73;;;19.70;99.90;;;;;;10043190;29;20318;-91
2022/10/29 14:26:28;;;;;;;8.53;5.07;;;19.20;99.90;;;;;;10031436;29;20246;-94
2022/10/29 14:31:30;;;;;;;7.67;5.20;;;18.90;99.90;;;;;;10021301;29;20291;-93
2022/10/29 14:36:35;;;;;;;10.20;4.63;;;18.60;99.90;;;;;;10020909;29;20263;-92
2022/10/29 14:41:38;;;;;;;7.87;5.37;;;18.50;99.90;;;;;;10003307;29;20267;-93
2022/10/29 14:46:42;;;;;;;9.23;5.47;;;18.50;99.90;;;;;;10004862;29;20629;-93
2022/10/29 14:51:58;;;;;;;7.90;4.70;;;18.40;99.90;;;;;;10020412;29;20291;-93
2022/10/29 14:57:06;;;;;;;10.07;4.97;;;18.40;99.90;;;;;;10022629;29;20244;-92
2022/10/29 15:02:12;;;;;;;8.67;5.93;;;18.40;99.90;;;;;;10020337;29;20214;-94
2022/10/29 15:07:35;;;;;;;7.33;5.07;;;18.40;99.90;;;;;;10003968;29;20226;-95
2022/10/29 15:12:38;;;;;;;5.97;4.67;;;18.30;99.90;;;;;;10003609;29;20271;-94
2022/10/29 15:17:47;;;;;;;11.20;5.07;;;18.20;99.90;;;;;;10002511;29;20865;-93
2022/10/29 15:22:55;;;;;;;8.93;5.60;;;18.00;99.90;;;;;;10004958;29;20218;-92
2022/10/29 15:27:59;;;;;;;9.13;5.00;;;17.90;99.90;;;;;;10038043;29;20242;-92
2022/10/29 15:33:07;;;;;;;12.80;6.30;;;17.90;99.90;;;;;;10033114;29;20238;-94
2022/10/29 15:38:29;;;;;;;8.40;5.27;;;17.80;99.90;;;;;;10047941;29;20218;-92
2022/10/29 15:43:31;;;;;;;8.43;5.23;;;17.80;99.90;;;;;;10047135;29;20275;-93
2022/10/29 15:48:36;;;;;;;10.00;5.13;;;17.70;99.90;;;;;;10065989;29;20222;-93
2022/10/29 15:53:38;;;;;;;14.23;8.97;;;17.70;99.90;;;;;;10048353;29;20554;-94
2022/10/29 15:58:41;;;;;;;19.93;8.43;;;17.60;99.90;;;;;;10043143;29;20661;-94
2022/10/29 16:03:44;;;;;;;24.07;11.10;;;17.20;99.90;;;;;;10042346;29;20650;-94
2022/10/29 16:08:54;;;;;;;14.27;8.07;;;16.40;99.90;;;;;;10042157;29;20297;-94
2022/10/29 16:13:56;;;;;;;17.77;9.70;;;16.50;99.90;;;;;;10058303;29;20299;-94
2022/10/29 16:18:59;;;;;;;12.80;7.70;;;16.50;99.90;;;;;;10041581;29;20241;-94
2022/10/29 16:24:01;;;;;;;16.13;7.77;;;16.50;99.90;;;;;;10057429;29;20229;-95
2022/10/29 16:29:04;;;;;;;7.23;4.77;;;16.60;99.90;;;;;;10041375;29;20513;-95
2022/10/29 16:34:12;;;;;;;20.03;10.07;;;16.70;99.90;;;;;;10040975;29;20245;-94
2022/10/29 16:39:14;;;;;;;19.90;12.63;;;16.60;99.90;;;;;;10040577;29;20325;-94
2022/10/29 16:44:17;;;;;;;17.83;11.77;;;16.60;99.90;;;;;;10040011;29;20253;-95
2022/10/29 16:49:19;;;;;;;23.53;14.50;;;16.60;99.90;;;;;;10024933;29;20265;-94
2022/10/29 16:54:21;;;;;;;16.80;10.43;;;16.30;99.90;;;;;;10040521;29;20691;-94
2022/10/29 16:59:24;;;;;;;17.67;9.90;;;16.20;99.90;;;;;;10039960;29;20241;-94
2022/10/29 17:04:27;;;;;;;6.10;4.73;;;16.50;99.90;;;;;;10024937;29;20262;-94
2022/10/29 17:09:29;;;;;;;28.93;14.47;;;16.70;99.90;;;;;;10024580;29;20637;-95
2022/10/29 17:14:32;;;;;;;16.53;10.30;;;16.60;99.90;;;;;;10040305;29;20245;-94
2022/10/29 17:19:34;;;;;;;20.63;12.27;;;16.20;99.90;;;;;;10040288;29;20277;-95
2022/10/29 17:24:37;;;;;;;16.47;9.40;;;16.10;99.90;;;;;;10039901;29;20648;-94
2022/10/29 17:29:39;;;;;;;14.40;9.83;;;16.20;99.90;;;;;;10023349;29;20329;-94
2022/10/29 17:34:42;;;;;;;14.60;9.73;;;16.30;99.90;;;;;;10023727;29;20251;-94
2022/10/29 17:39:44;;;;;;;9.40;6.50;;;16.30;99.90;;;;;;10039272;29;20282;-94
2022/10/29 17:44:47;;;;;;;12.43;9.03;;;16.60;99.90;;;;;;10038874;29;20293;-94
2022/10/29 17:49:49;;;;;;;22.87;14.50;;;16.70;99.90;;;;;;10024007;29;20278;-95
2022/10/29 17:54:52;;;;;;;27.27;14.03;;;16.50;99.90;;;;;;10024682;29;20220;-95
2022/10/29 17:59:54;;;;;;;10.87;7.10;;;16.70;99.90;;;;;;10038672;29;20300;-94
2022/10/29 18:04:57;;;;;;;8.47;5.20;;;16.80;99.90;;;;;;10039411;29;20217;-94
2022/10/29 18:09:59;;;;;;;26.03;14.87;;;17.00;99.90;;;;;;10016133;29;20234;-89
2022/10/29 18:15:02;;;;;;;106.77;40.53;;;17.00;99.90;;;;;;9991905;29;20274;-89
2022/10/29 18:20:05;;;;;;;84.43;32.90;;;16.30;99.90;;;;;;9989490;29;20245;-89
2022/10/29 18:25:09;;;;;;;77.03;38.70;;;16.80;99.90;;;;;;9971246;29;20656;-89
2022/10/29 18:30:11;;;;;;;85.63;33.33;;;17.10;99.90;;;;;;9982640;29;20291;-89
2022/10/29 18:35:14;;;;;;;71.63;30.40;;;17.20;99.90;;;;;;9973447;29;20243;-88
2022/10/29 18:40:17;;;;;;;71.63;32.03;;;17.50;99.90;;;;;;9998023;29;20267;-89
2022/10/29 18:45:19;;;;;;;74.13;31.80;;;17.70;99.90;;;;;;9976213;29;20744;-89
2022/10/29 18:50:22;;;;;;;68.63;31.77;;;17.60;99.90;;;;;;9974772;29;20300;-89
2022/10/29 18:55:24;;;;;;;66.37;35.57;;;17.90;99.90;;;;;;9955600;29;20242;-89
2022/10/29 19:00:27;;;;;;;63.37;30.90;;;18.20;99.90;;;;;;9980009;29;20254;-89
2022/10/29 19:05:29;;;;;;;66.47;40.87;;;18.20;99.90;;;;;;9663345;29;9999806;-89
2022/10/29 19:10:40;;;;;;;60.47;32.07;;;18.10;99.90;;;;;;9977635;29;20266;-89
2022/10/29 19:15:42;;;;;;;64.63;37.93;;;18.00;99.90;;;;;;9961445;29;20307;-89
2022/10/29 19:20:45;;;;;;;58.10;34.63;;;18.10;99.90;;;;;;9977211;29;20251;-89
2022/10/29 19:25:47;;;;;;;66.57;38.00;;;17.80;99.90;;;;;;9994916;29;20919;-88
2022/10/29 19:30:50;;;;;;;58.73;31.80;;;17.80;99.90;;;;;;9647121;29;10000587;-89
2022/10/29 19:35:52;;;;;;;57.50;31.27;;;17.90;99.90;;;;;;9974893;29;20294;-88
2022/10/29 19:40:55;;;;;;;52.00;30.20;;;18.10;99.90;;;;;;9977694;29;20315;-89
2022/10/29 19:45:58;;;;;;;60.83;33.90;;;18.00;99.90;;;;;;9966170;29;20266;-88
2022/10/29 19:51:02;;;;;;;53.05;30.35;;;18.10;99.90;;;;;;9962112;29;20720;-88
2022/10/29 19:56:06;;;;;;;51.17;28.40;;;18.20;99.90;;;;;;9995092;29;20234;-88
2022/10/29 20:01:17;;;;;;;62.70;34.13;;;18.30;99.90;;;;;;9978443;29;20276;-88
2022/10/29 20:06:20;;;;;;;45.17;29.77;;;18.30;99.90;;;;;;9990363;29;20239;-89
2022/10/29 20:11:23;;;;;;;62.70;37.33;;;18.10;99.90;;;;;;9992128;29;20262;-88
2022/10/29 20:16:25;;;;;;;47.43;31.93;;;18.00;99.90;;;;;;9978608;29;20253;-89
2022/10/29 20:21:27;;;;;;;54.63;30.55;;;18.20;99.90;;;;;;9985518;29;20238;-89
2022/10/29 20:26:30;;;;;;;59.10;33.40;;;18.20;99.90;;;;;;9999168;29;20255;-88
2022/10/29 20:31:33;;;;;;;51.05;30.88;;;18.20;99.90;;;;;;9997277;29;20301;-89
2022/10/29 20:36:45;;;;;;;70.93;41.88;;;18.20;99.90;;;;;;9979345;29;20303;-89
2022/10/29 20:41:49;;;;;;;57.07;31.37;;;18.00;99.90;;;;;;9993682;29;20300;-89
2022/10/29 20:46:52;;;;;;;50.30;32.93;;;17.70;99.90;;;;;;10001199;29;20307;-90
2022/10/29 20:51:54;;;;;;;41.40;26.42;;;17.60;99.90;;;;;;9981260;29;20270;-88
2022/10/29 20:56:56;;;;;;;61.30;35.13;;;17.90;99.90;;;;;;9996508;29;20239;-89
2022/10/29 21:01:59;;;;;;;59.95;37.90;;;17.40;99.90;;;;;;9979775;29;20318;-89
2022/10/29 21:07:01;;;;;;;59.57;35.03;;;17.00;99.90;;;;;;9977729;29;20760;-89
2022/10/29 21:12:04;;;;;;;66.90;39.57;;;16.60;99.90;;;;;;9988592;29;20513;-89
2022/10/29 21:17:07;;;;;;;61.87;38.20;;;16.20;99.90;;;;;;9984956;29;20298;-89
2022/10/29 21:22:09;;;;;;;48.30;28.48;;;16.60;99.90;;;;;;9977330;29;20242;-89
2022/10/29 21:27:12;;;;;;;56.47;33.47;;;16.60;99.90;;;;;;9981840;29;20249;-89
2022/10/29 21:32:15;;;;;;;52.93;32.83;;;16.60;99.90;;;;;;9995497;29;20274;-89
2022/10/29 21:37:18;;;;;;;63.78;39.00;;;16.10;99.90;;;;;;9980220;29;20243;-89
2022/10/29 21:42:20;;;;;;;52.50;33.07;;;15.90;99.90;;;;;;9977816;29;20241;-88
2022/10/29 21:47:23;;;;;;;50.57;31.53;;;16.00;99.90;;;;;;9976036;29;20271;-89
2022/10/29 21:52:26;;;;;;;51.90;32.70;;;16.00;99.90;;;;;;9979511;29;20667;-89
2022/10/29 21:57:28;;;;;;;49.30;28.17;;;15.50;99.90;;;;;;9995406;29;20698;-89
2022/10/29 22:02:31;;;;;;;58.83;35.03;;;16.50;99.90;;;;;;9990839;29;20254;-89
2022/10/29 22:07:34;;;;;;;46.33;31.73;;;15.50;99.90;;;;;;9975814;29;20250;-89
2022/10/29 22:12:36;;;;;;;51.47;31.87;;;15.00;99.90;;;;;;9993784;29;20277;-89
2022/10/29 22:17:40;;;;;;;38.00;26.27;;;14.60;99.90;;;;;;9985942;29;20303;-89
2022/10/29 22:22:42;;;;;;;41.63;26.67;;;14.50;99.90;;;;;;9975493;29;20798;-89
2022/10/29 22:27:45;;;;;;;36.90;24.77;;;15.40;99.90;;;;;;9996287;29;20311;-89
2022/10/29 22:32:47;;;;;;;54.27;30.60;;;16.50;99.90;;;;;;9990986;29;20262;-89
2022/10/29 22:37:52;;;;;;;49.37;30.17;;;16.00;99.90;;;;;;9989673;29;20322;-90
2022/10/29 22:42:54;;;;;;;45.43;29.37;;;15.50;99.90;;;;;;9965776;29;20684;-89
2022/10/29 22:47:57;;;;;;;37.10;25.77;;;15.40;99.90;;;;;;9977442;29;20306;-89
2022/10/29 22:53:00;;;;;;;41.83;27.10;;;15.80;99.90;;;;;;9987087;29;20273;-89
2022/10/29 22:58:02;;;;;;;42.70;28.23;;;15.70;99.90;;;;;;9978478;29;20242;-89
2022/10/29 23:03:05;;;;;;;45.43;29.47;;;15.70;99.90;;;;;;9981844;29;20309;-89
2022/10/29 23:08:07;;;;;;;47.73;28.03;;;15.90;99.90;;;;;;9979346;29;20303;-89
2022/10/29 23:13:10;;;;;;;43.80;28.87;;;15.20;99.90;;;;;;9974398;29;20262;-89
2022/10/29 23:18:13;;;;;;;49.43;30.80;;;14.90;99.90;;;;;;9993565;29;20274;-89
2022/10/29 23:23:15;;;;;;;43.80;28.83;;;14.20;99.90;;;;;;9973958;29;20258;-89
2022/10/29 23:28:18;;;;;;;41.37;26.80;;;14.50;99.90;;;;;;9967364;29;20753;-89
2022/10/29 23:33:21;;;;;;;39.37;25.10;;;14.50;99.90;;;;;;9998201;29;20270;-89
2022/10/29 23:38:23;;;;;;;45.10;29.67;;;14.50;99.90;;;;;;9960952;29;20748;-89
2022/10/29 23:43:26;;;;;;;39.67;24.43;;;14.50;99.90;;;;;;9972346;29;20503;-89
2022/10/29 23:48:29;;;;;;;51.43;32.53;;;14.50;99.90;;;;;;9988645;29;20246;-89
2022/10/29 23:53:31;;;;;;;41.53;27.33;;;14.60;99.90;;;;;;9995824;29;20322;-89
2022/10/29 23:58:34;;;;;;;44.43;27.43;;;14.60;99.90;;;;;;9985722;29;20301;-89
